Tarpon Springs, FL (34688)

7:40 PM EDT on July 23, 2016 (GMT -0400)
Trinity, FL | | Change Station

Elev 25 ft 28.18 °N, 82.68 °W | Updated 11 seconds ago

Mostly Cloudy
Mostly Cloudy
86.0 °F
Feels Like 97 °F
N
0.0
Wind Variable Wind from East
Gusts 2.0 mph

Today
High -- | Low -- °F
--% Chance of Precip.
Yesterday
High -- | Low -- °F
Precip. -- in
Pressure 29.99 in
Visibility 10.0 miles
Clouds Few 2800 ft
Few 13000 ft
Mostly Cloudy 25000 ft
Heat Index 97 °F
Dew Point 77 °F
Humidity 75%
Rainfall 0.00 in
Snow Depth Not available.
6:48 AM 8:25 PM
Waning Gibbous, 81% visible
METAR KTPA 232253Z 25006KT 10SM FEW028TCU FEW130 BKN250 31/23 A2999 RMK AO2 SLP156 TCU SE T03060233
Pressure 29.99 in
Visibility 10.0 miles
Clouds Few 2800 ft
Few 13000 ft
Mostly Cloudy 25000 ft
Heat Index 97 °F
Dew Point 77 °F
Humidity 75%
Rainfall 0.00 in
Snow Depth Not available.
6:48 AM 8:25 PM
Waning Gibbous, 81% visible
METAR KTPA 232253Z 25006KT 10SM FEW028TCU FEW130 BKN250 31/23 A2999 RMK AO2 SLP156 TCU SE T03060233

10-Day Weather Forecast

Almanac

Astronomy

Jul. 23, 2016 Rise Set
Actual Time
Civil Twilight
Nautical Twilight
Astronomical Twilight
Moon
Length of Visible Light
Length of Day
Tomorrow will be .
, % of the Moon is Illuminated

Today's Extremes

State Highs State Lows

Community

WunderPhotos

Upload Photos

1,926,974 photos uploaded!

WunderBlog® & News

Nearby

Air Quality

  Air Quality AQ Index Pollutant
Not available.

Snow Depth

Station Depth Elevation

Earthquake Activity

City Distance Mag. Time & Date
Minimum magnitude displayed is 2.5.

Coastal Water Temperatures

Place Temperature

Stations

Nearby Weather Stations

Station Location Temp. Windchill Dew Point Humidity Wind Precip. Elev Updated Type
                   

Watches & Warnings

There are currently no watches in effect.